Time;durP1;ratioP1;P1;durP2;ratioP2;P2;SDS_P1;SDS_P2;PMS_P1;PMS_P2;Temp;Humidity;BMP_temperature;BMP_pressure;BME280_temperature;BME280_humidity;BME280_pressure;Samples;Min_cycle;Max_cycle;Signal;HPM_P1;HPM_P2
2023/09/24 00:01:06;;;;;;;2.65;1.48;;;;;;;12.12;70.10;97372.88;4842923;29;20582;-77
2023/09/24 00:03:34;;;;;;;2.35;1.50;;;;;;;12.05;68.91;97366.72;4842937;29;20054;-77
2023/09/24 00:06:05;;;;;;;2.38;1.45;;;;;;;12.00;68.75;97374.22;4843084;29;20503;-78
2023/09/24 00:08:33;;;;;;;2.53;1.55;;;;;;;11.92;68.72;97374.28;4843212;29;20136;-77
2023/09/24 00:11:02;;;;;;;3.22;1.58;;;;;;;11.85;68.87;97376.75;4842939;29;20077;-77
2023/09/24 00:13:33;;;;;;;4.35;1.60;;;;;;;11.79;68.96;97382.66;4842862;29;20140;-77
2023/09/24 00:16:05;;;;;;;3.13;2.10;;;;;;;11.74;68.89;97372.72;4842981;29;20058;-76
2023/09/24 00:18:35;;;;;;;6.30;2.10;;;;;;;11.68;69.04;97380.41;4842724;29;20089;-77
2023/09/24 00:21:03;;;;;;;2.17;1.40;;;;;;;11.61;69.15;97372.44;4842575;29;20066;-77
2023/09/24 00:23:31;;;;;;;2.53;1.50;;;;;;;11.56;69.43;97377.34;4842830;29;20430;-77
2023/09/24 00:25:59;;;;;;;2.15;1.10;;;;;;;11.55;69.79;97371.31;4842821;29;20136;-77
2023/09/24 00:28:27;;;;;;;3.08;1.20;;;;;;;11.59;69.93;97377.00;4843020;29;20287;-77
2023/09/24 00:30:55;;;;;;;3.60;1.70;;;;;;;11.57;69.66;97383.38;4842477;29;20506;-77
2023/09/24 00:33:23;;;;;;;3.90;1.38;;;;;;;11.52;69.46;97387.31;4842357;29;20097;-77
2023/09/24 00:35:54;;;;;;;4.60;1.50;;;;;;;11.51;69.92;97390.09;4842977;29;20050;-77
2023/09/24 00:38:21;;;;;;;3.63;1.95;;;;;;;11.44;69.91;97389.16;4844780;29;20502;-77
2023/09/24 00:40:49;;;;;;;5.22;1.65;;;;;;;11.40;70.06;97391.25;4853285;29;20049;-77
2023/09/24 00:43:28;;;;;;;1.77;1.15;;;;;;;11.43;71.10;97396.16;4842140;29;20058;-77
2023/09/24 00:45:57;;;;;;;1.85;1.33;;;;;;;11.48;70.01;97399.09;4842226;29;20494;-77
2023/09/24 00:48:28;;;;;;;3.55;1.75;;;;;;;11.47;69.60;97404.47;4842638;29;20054;-77
2023/09/24 00:50:59;;;;;;;2.28;1.52;;;;;;;11.43;69.84;97409.22;4842509;29;20062;-77
2023/09/24 00:53:28;;;;;;;6.65;2.10;;;;;;;11.39;69.82;97404.50;4841928;29;20080;-77
2023/09/24 00:55:57;;;;;;;1.88;1.50;;;;;;;11.37;70.12;97415.13;4842071;29;20057;-77
2023/09/24 00:58:26;;;;;;;4.03;1.63;;;;;;;11.37;69.80;97407.28;4842138;29;20062;-77
2023/09/24 01:00:54;;;;;;;5.13;2.03;;;;;;;11.39;69.93;97409.72;4841799;29;20054;-76
2023/09/24 01:03:23;;;;;;;4.57;1.40;;;;;;;11.37;69.89;97404.69;4844703;29;20140;-77
2023/09/24 01:05:51;;;;;;;2.28;1.38;;;;;;;11.32;69.70;97406.94;4842046;29;20050;-77
2023/09/24 01:08:22;;;;;;;1.73;1.48;;;;;;;11.27;69.97;97406.66;4842018;29;20058;-77
2023/09/24 01:10:50;;;;;;;2.88;1.20;;;;;;;11.31;69.99;97410.56;4842052;29;20053;-77
2023/09/24 01:13:20;;;;;;;2.08;1.30;;;;;;;11.36;70.02;97413.47;4854008;29;20050;-77
2023/09/24 01:15:49;;;;;;;2.75;1.70;;;;;;;11.38;69.53;97410.72;4856326;29;20061;-77
2023/09/24 01:18:17;;;;;;;4.03;1.30;;;;;;;11.37;69.42;97409.91;4852300;29;20049;-77
2023/09/24 01:20:45;;;;;;;1.90;1.40;;;;;;;11.36;69.51;97408.25;4858042;29;20119;-78
2023/09/24 01:23:15;;;;;;;2.88;1.52;;;;;;;11.36;69.46;97405.63;4858908;29;20058;-77
2023/09/24 01:25:44;;;;;;;1.90;1.30;;;;;;;11.35;69.61;97417.09;4845610;29;20141;-76
2023/09/24 01:28:11;;;;;;;3.78;1.23;;;;;;;11.32;69.52;97422.63;4844364;29;20054;-77
2023/09/24 01:30:40;;;;;;;2.05;0.98;;;;;;;11.30;70.13;97421.97;4842951;29;20107;-77
2023/09/24 01:33:07;;;;;;;2.30;1.30;;;;;;;11.33;70.13;97421.66;4841811;29;20502;-76
2023/09/24 01:35:36;;;;;;;1.75;1.27;;;;;;;11.30;69.62;97419.34;4842334;29;20054;-77
2023/09/24 01:38:05;;;;;;;2.80;1.42;;;;;;;11.25;69.53;97421.66;4842148;29;20080;-77
2023/09/24 01:40:37;;;;;;;3.25;1.85;;;;;;;11.19;69.94;97424.94;4842091;29;20141;-77
2023/09/24 01:43:07;;;;;;;6.32;1.38;;;;;;;11.18;69.90;97425.94;4841635;29;20588;-77
2023/09/24 01:45:38;;;;;;;5.45;1.95;;;;;;;11.19;69.80;97424.94;4841773;29;20061;-77
2023/09/24 01:48:06;;;;;;;3.72;1.30;;;;;;;11.16;69.74;97428.69;4841700;29;20541;-77
2023/09/24 01:50:35;;;;;;;2.35;1.50;;;;;;;11.14;69.90;97431.47;4841813;29;20110;-77
2023/09/24 01:53:04;;;;;;;1.33;1.10;;;;;;;11.17;70.23;97435.53;4841216;29;20045;-78
2023/09/24 01:55:32;;;;;;;4.15;1.63;;;;;;;11.19;69.88;97430.97;4841468;29;20057;-77
2023/09/24 01:58:01;;;;;;;2.00;1.33;;;;;;;11.18;69.83;97433.75;4841374;29;20054;-77
2023/09/24 02:00:28;;;;;;;1.95;1.13;;;;;;;11.11;69.80;97429.19;4841664;29;20082;-77
2023/09/24 02:02:59;;;;;;;5.30;1.75;;;;;;;11.09;69.69;97436.38;4841524;29;20054;-77
2023/09/24 02:05:32;;;;;;;3.00;1.42;;;;;;;11.05;70.32;97440.28;4841289;29;20054;-77
2023/09/24 02:08:00;;;;;;;;;;;;;;;11.09;71.07;97438.97;4841796;29;20058;-77
2023/09/24 02:10:27;;;;;;;2.28;1.30;;;;;;;11.16;70.65;97443.56;4841526;29;20353;-77
2023/09/24 02:12:55;;;;;;;1.88;1.30;;;;;;;11.16;69.74;97449.59;4841190;29;20106;-77
2023/09/24 02:15:24;;;;;;;2.10;1.65;;;;;;;11.12;70.25;97448.28;4841299;29;20118;-79
2023/09/24 02:17:52;;;;;;;3.35;1.67;;;;;;;11.11;69.94;97451.88;4841595;29;20136;-79
2023/09/24 02:20:23;;;;;;;5.25;1.58;;;;;;;11.06;69.80;97455.00;4841382;29;20050;-78
2023/09/24 02:22:53;;;;;;;1.58;1.40;;;;;;;10.98;69.52;97468.03;4841096;29;20426;-79
2023/09/24 02:25:21;;;;;;;3.33;1.42;;;;;;;10.93;69.85;97455.47;4841330;29;20049;-78
2023/09/24 02:27:50;;;;;;;3.13;1.77;;;;;;;10.89;69.78;97458.56;4841059;29;20518;-78
2023/09/24 02:30:18;;;;;;;3.22;1.95;;;;;;;10.86;69.86;97459.69;4841412;29;20452;-78
2023/09/24 02:32:48;;;;;;;2.58;1.95;;;;;;;10.82;69.84;97458.41;4841183;29;20057;-79
2023/09/24 02:35:16;;;;;;;3.08;1.90;;;;;;;10.78;69.81;97453.66;4841565;29;20118;-78
2023/09/24 02:37:45;;;;;;;1.83;1.50;;;;;;;10.75;70.23;97452.19;4841310;29;20054;-78
2023/09/24 02:40:18;;;;;;;3.33;1.60;;;;;;;10.75;70.07;97452.19;4841067;29;20050;-78
2023/09/24 02:42:46;;;;;;;3.10;1.50;;;;;;;10.74;70.09;97455.78;4841002;29;20106;-79
2023/09/24 02:45:15;;;;;;;2.58;1.45;;;;;;;10.74;70.26;97450.56;4841156;29;20054;-79
2023/09/24 02:47:44;;;;;;;2.60;1.77;;;;;;;10.78;69.73;97451.88;4841309;29;20064;-79
2023/09/24 02:50:13;;;;;;;2.72;1.70;;;;;;;10.76;69.74;97458.22;4841000;29;20563;-79
2023/09/24 02:52:42;;;;;;;3.35;1.73;;;;;;;10.76;70.05;97463.44;4840903;29;20050;-79
2023/09/24 02:55:12;;;;;;;2.83;1.50;;;;;;;10.75;70.16;97467.84;4841130;29;20570;-79
2023/09/24 02:57:40;;;;;;;5.88;1.40;;;;;;;10.76;69.91;97471.25;4841311;29;20068;-79
2023/09/24 03:00:15;;;;;;;2.78;1.95;;;;;;;10.70;70.06;97481.38;4841192;29;20058;-79
2023/09/24 03:02:43;;;;;;;1.30;1.20;;;;;;;10.63;70.34;97469.94;4839035;29;20046;-78
2023/09/24 03:05:12;;;;;;;4.55;1.77;;;;;;;10.65;70.56;97481.03;4866903;29;20050;-78
2023/09/24 03:07:44;;;;;;;5.80;1.80;;;;;;;10.61;70.38;97477.13;4858759;29;20110;-77
2023/09/24 03:10:13;;;;;;;3.08;1.77;;;;;;;10.58;70.54;97482.63;4844810;29;20058;-78
2023/09/24 03:12:40;;;;;;;2.95;2.22;;;;;;;10.52;70.65;97480.69;4834329;29;20054;-78
2023/09/24 03:15:10;;;;;;;2.83;1.70;;;;;;;10.50;70.63;97480.03;4841487;29;20157;-78
2023/09/24 03:17:38;;;;;;;3.05;1.73;;;;;;;10.50;71.61;97485.25;4826262;29;20064;-78
2023/09/24 03:20:12;;;;;;;4.00;2.00;;;;;;;10.48;70.68;97487.19;4826148;29;20415;-78
2023/09/24 03:22:40;;;;;;;5.43;2.08;;;;;;;10.44;70.91;97491.09;4834760;29;20082;-78
2023/09/24 03:25:10;;;;;;;2.50;1.38;;;;;;;10.39;70.97;97499.41;4825710;29;20118;-78
2023/09/24 03:27:39;;;;;;;3.10;1.60;;;;;;;10.37;70.95;97490.91;4835575;29;20062;-78
2023/09/24 03:30:10;;;;;;;2.35;1.80;;;;;;;10.38;71.02;97500.38;4841054;29;20164;-78
2023/09/24 03:32:38;;;;;;;3.10;1.73;;;;;;;10.38;71.19;97510.00;4825382;29;20120;-79
2023/09/24 03:35:09;;;;;;;2.97;2.00;;;;;;;10.36;71.12;97511.94;4826228;29;20093;-78
2023/09/24 03:37:40;;;;;;;2.42;2.05;;;;;;;10.36;71.55;97514.53;4826000;29;20126;-78
2023/09/24 03:40:12;;;;;;;4.38;2.30;;;;;;;10.35;71.26;97513.72;4825943;29;20057;-78
2023/09/24 03:42:40;;;;;;;4.78;1.75;;;;;;;10.34;71.21;97522.50;4825029;29;20092;-78
2023/09/24 03:45:09;;;;;;;2.88;1.98;;;;;;;10.33;71.58;97520.09;4840904;29;20451;-78
2023/09/24 03:47:38;;;;;;;4.13;2.63;;;;;;;10.34;71.44;97516.50;4844381;29;20089;-78
2023/09/24 03:50:08;;;;;;;3.65;2.28;;;;;;;10.33;71.50;97525.31;4843440;29;20068;-79
2023/09/24 03:52:37;;;;;;;2.72;2.40;;;;;;;10.29;71.61;97520.38;4826297;29;20165;-78
2023/09/24 03:55:05;;;;;;;3.47;1.88;;;;;;;10.29;71.87;97530.81;4825717;29;20055;-79
2023/09/24 03:57:35;;;;;;;3.08;2.05;;;;;;;10.33;71.80;97526.09;4826229;29;20061;-78
2023/09/24 04:00:13;;;;;;;2.10;1.90;;;;;;;10.37;71.79;97526.63;4827016;29;20050;-79
2023/09/24 04:02:41;;;;;;;2.53;2.08;;;;;;;10.43;72.14;97532.03;4825542;29;20057;-79
2023/09/24 04:05:14;;;;;;;2.10;1.90;;;;;;;10.47;71.58;97535.13;4825620;29;20408;-79
2023/09/24 04:07:43;;;;;;;5.97;1.98;;;;;;;10.51;72.18;97528.63;4830056;29;20139;-78
2023/09/24 04:10:14;;;;;;;4.20;2.60;;;;;;;10.58;72.00;97532.22;4844038;29;20084;-78
2023/09/24 04:12:46;;;;;;;4.82;2.00;;;;;;;10.64;71.98;97539.41;4831591;29;20073;-78
2023/09/24 04:15:14;;;;;;;3.78;1.60;;;;;;;10.70;71.43;97536.16;4845331;29;20058;-79
2023/09/24 04:17:42;;;;;;;2.00;1.55;;;;;;;10.78;71.84;97537.16;4845097;29;20058;-79
2023/09/24 04:20:14;;;;;;;3.47;2.17;;;;;;;10.78;70.55;97540.59;4826579;29;20054;-79
2023/09/24 04:22:44;;;;;;;2.67;1.90;;;;;;;10.66;70.03;97542.69;4825417;29;20475;-79
2023/09/24 04:25:14;;;;;;;3.47;1.95;;;;;;;10.58;70.38;97544.44;4826018;29;20054;-78
2023/09/24 04:27:44;;;;;;;4.53;2.25;;;;;;;10.52;71.17;97544.13;4843484;29;20058;-78
2023/09/24 04:30:15;;;;;;;4.55;2.33;;;;;;;10.51;70.59;97554.69;4842316;29;20119;-79
2023/09/24 04:32:43;;;;;;;7.88;2.10;;;;;;;10.47;70.53;97556.81;4824817;29;20556;-78
2023/09/24 04:35:11;;;;;;;3.58;2.50;;;;;;;10.42;70.46;97558.25;4824958;29;20058;-79
2023/09/24 04:37:39;;;;;;;3.08;2.17;;;;;;;10.35;70.62;97565.09;4824941;29;20051;-78
2023/09/24 04:40:10;;;;;;;4.80;2.50;;;;;;;10.26;70.67;97567.63;4824700;29;20534;-78
2023/09/24 04:42:40;;;;;;;3.33;2.35;;;;;;;10.19;70.96;97573.59;4824614;29;20118;-79
2023/09/24 04:45:11;;;;;;;7.78;2.33;;;;;;;10.12;71.55;97578.59;4824324;29;20141;-78
2023/09/24 04:47:38;;;;;;;2.70;2.17;;;;;;;10.08;71.29;97580.72;4825180;29;20054;-79
2023/09/24 04:50:07;;;;;;;3.55;1.98;;;;;;;10.05;71.63;97585.41;4834874;29;20069;-79
2023/09/24 04:52:37;;;;;;;3.72;2.22;;;;;;;10.07;72.10;97589.50;4840341;29;20073;-79
2023/09/24 04:55:06;;;;;;;2.88;2.13;;;;;;;10.09;71.60;97581.53;4836997;29;20054;-79
2023/09/24 04:57:34;;;;;;;3.60;2.58;;;;;;;10.06;71.55;97584.47;4824995;29;20522;-78
2023/09/24 05:00:02;;;;;;;3.30;1.80;;;;;;;10.03;71.60;97588.16;4824553;29;20054;-79
2023/09/24 05:02:31;;;;;;;2.95;1.63;;;;;;;10.03;71.97;97588.16;4824509;29;20055;-78
2023/09/24 05:04:58;;;;;;;2.30;1.90;;;;;;;10.13;72.66;97598.50;4824294;29;20060;-79
2023/09/24 05:07:26;;;;;;;1.98;1.55;;;;;;;10.24;72.63;97600.84;4833473;29;20058;-79
2023/09/24 05:09:54;;;;;;;3.83;1.40;;;;;;;10.31;72.03;97601.88;4849124;29;20102;-79
2023/09/24 05:12:23;;;;;;;2.22;1.70;;;;;;;10.32;71.39;97597.50;4833361;29;20104;-78
2023/09/24 05:14:50;;;;;;;4.32;1.70;;;;;;;10.29;71.08;97598.63;4825493;29;20062;-79
2023/09/24 05:17:18;;;;;;;2.70;1.83;;;;;;;10.24;71.31;97590.41;4840029;29;20053;-78
2023/09/24 05:19:47;;;;;;;3.40;2.03;;;;;;;10.24;71.34;97595.63;4842743;29;20191;-79
2023/09/24 05:22:15;;;;;;;4.25;1.98;;;;;;;10.25;71.39;97596.44;4842150;29;20057;-80
2023/09/24 05:24:42;;;;;;;2.83;1.92;;;;;;;10.26;71.72;97596.28;4842471;29;20512;-78
2023/09/24 05:27:14;;;;;;;8.82;2.00;;;;;;;10.28;71.51;97596.97;4841204;29;20573;-81
2023/09/24 05:29:41;;;;;;;3.60;1.75;;;;;;;10.29;71.51;97603.03;4842579;29;20482;-78
2023/09/24 05:32:09;;;;;;;3.45;1.63;;;;;;;10.35;72.27;97596.38;4830875;29;20046;-79
2023/09/24 05:34:37;;;;;;;5.68;2.55;;;;;;;10.40;71.40;97610.56;4823858;29;20564;-79
2023/09/24 05:37:06;;;;;;;3.50;1.75;;;;;;;10.41;70.99;97611.41;4840406;29;20092;-78
2023/09/24 05:39:34;;;;;;;3.65;1.80;;;;;;;10.42;71.09;97605.22;4839645;29;20058;-79
2023/09/24 05:42:01;;;;;;;6.47;1.80;;;;;;;10.38;70.67;97604.69;4824369;29;20400;-78
2023/09/24 05:44:31;;;;;;;3.78;1.75;;;;;;;10.35;70.96;97609.41;4824018;29;20054;-78
2023/09/24 05:47:00;;;;;;;5.32;2.40;;;;;;;10.29;70.76;97614.25;4837987;29;20056;-79
2023/09/24 05:49:28;;;;;;;4.88;1.95;;;;;;;10.24;71.07;97613.88;4842221;29;20062;-78
2023/09/24 05:51:55;;;;;;;4.28;1.80;;;;;;;10.24;71.10;97616.50;4841198;29;20103;-78
2023/09/24 05:54:24;;;;;;;3.97;1.83;;;;;;;10.24;71.37;97611.28;4841920;29;20054;-77
2023/09/24 05:56:52;;;;;;;2.78;1.50;;;;;;;10.24;71.03;97611.28;4839069;29;20053;-79
2023/09/24 05:59:20;;;;;;;2.67;1.83;;;;;;;10.28;71.55;97617.81;4838170;29;20050;-79
2023/09/24 06:01:47;;;;;;;3.80;1.92;;;;;;;10.35;71.65;97625.88;4860114;29;20109;-78
2023/09/24 06:04:15;;;;;;;4.53;2.10;;;;;;;10.43;71.61;97619.88;4845657;29;20057;-78
2023/09/24 06:06:43;;;;;;;4.07;2.00;;;;;;;10.53;72.55;97620.56;4841831;29;20056;-78
2023/09/24 06:09:11;;;;;;;3.00;1.90;;;;;;;10.64;71.97;97622.09;4841668;29;20112;-79
2023/09/24 06:11:45;;;;;;;3.67;2.13;;;;;;;10.69;71.21;97619.81;4834189;29;20058;-79
2023/09/24 06:14:13;;;;;;;2.60;1.50;;;;;;;10.67;70.62;97622.59;4825215;29;20057;-78
2023/09/24 06:16:41;;;;;;;1.83;1.50;;;;;;;10.69;71.33;97615.44;4851190;29;20060;-78
2023/09/24 06:19:08;;;;;;;4.65;2.65;;;;;;;10.71;70.53;97623.94;4844577;29;20111;-78
2023/09/24 06:21:36;;;;;;;3.97;1.80;;;;;;;10.75;70.79;97623.59;4831928;29;20511;-78
2023/09/24 06:24:04;;;;;;;2.95;2.10;;;;;;;10.77;70.44;97624.28;4834276;29;20145;-77
2023/09/24 06:26:32;;;;;;;2.22;1.90;;;;;;;10.84;71.41;97622.66;4838266;29;20585;-77
2023/09/24 06:29:01;;;;;;;2.22;1.90;;;;;;;10.97;71.03;97627.44;4836869;29;20064;-78
2023/09/24 06:31:38;;;;;;;5.95;2.28;;;;;;;11.05;69.67;97636.09;4836823;29;20054;-77
2023/09/24 06:34:05;;;;;;;3.97;1.70;;;;;;;11.11;69.38;97635.47;4823187;29;20538;-77
2023/09/24 06:36:33;;;;;;;4.45;1.75;;;;;;;11.23;69.38;97635.16;4834236;29;20411;-77
2023/09/24 06:39:02;;;;;;;3.42;1.92;;;;;;;11.34;69.17;97643.50;4841244;29;20106;-79
2023/09/24 06:41:30;;;;;;;3.67;1.70;;;;;;;11.50;70.34;97634.06;4862305;29;20049;-78
2023/09/24 06:43:58;;;;;;;2.63;1.55;;;;;;;11.69;70.94;97648.63;4857676;29;20046;-78
2023/09/24 06:46:27;;;;;;;5.28;2.08;;;;;;;11.89;71.59;97651.75;4844894;29;20096;-78
2023/09/24 06:48:55;;;;;;;2.85;2.50;;;;;;;12.08;71.13;97646.19;4844595;29;20060;-78
2023/09/24 06:51:22;;;;;;;8.05;3.08;;;;;;;12.29;70.55;97648.28;4844555;29;20056;-78
2023/09/24 06:53:52;;;;;;;6.10;2.42;;;;;;;12.47;69.59;97652.50;4844285;29;20057;-78
2023/09/24 06:56:19;;;;;;;4.25;2.30;;;;;;;12.65;69.85;97645.22;4852527;29;20049;-78
2023/09/24 06:58:48;;;;;;;4.32;2.35;;;;;;;12.85;69.58;97650.88;4825936;29;20149;-78
2023/09/24 07:01:16;;;;;;;4.38;2.03;;;;;;;13.07;69.19;97649.28;4826160;29;20069;-79
2023/09/24 07:03:46;;;;;;;3.70;2.05;;;;;;;13.23;68.15;97648.41;4825797;29;20486;-79
2023/09/24 07:06:16;;;;;;;2.20;1.88;;;;;;;13.44;68.53;97649.63;4826051;29;20050;-79
2023/09/24 07:08:44;;;;;;;3.30;1.70;;;;;;;13.65;68.36;97647.19;4845306;29;20083;-79
2023/09/24 07:11:28;;;;;;;2.90;2.30;;;;;;;13.86;66.29;97648.31;4861565;29;20050;-80
2023/09/24 07:13:55;;;;;;;5.75;2.03;;;;;;;14.02;66.00;97646.38;4854272;29;20092;-81
2023/09/24 07:16:41;;;;;;;4.22;1.70;;;;;;;14.17;67.68;97656.09;4847333;29;20055;-81
2023/09/24 07:19:45;;;;;;;3.35;1.70;;;;;;;14.40;64.94;97656.84;4824020;29;20054;-81
2023/09/24 07:22:13;;;;;;;3.60;2.03;;;;;;;14.61;64.11;97653.53;4843753;29;20049;-77
2023/09/24 07:24:41;;;;;;;4.82;1.95;;;;;;;14.78;63.75;97654.16;4857559;29;20097;-75
2023/09/24 07:27:10;;;;;;;5.93;1.98;;;;;;;14.96;62.81;97652.97;4857387;29;20053;-75
2023/09/24 07:29:39;;;;;;;4.15;2.03;;;;;;;15.12;63.68;97652.75;4860349;29;20065;-76
2023/09/24 07:32:06;;;;;;;2.25;1.73;;;;;;;15.29;63.38;97655.97;4861755;29;20038;-76
2023/09/24 07:34:34;;;;;;;3.83;2.83;;;;;;;15.47;62.88;97652.94;4865973;29;20128;-76
2023/09/24 07:37:06;;;;;;;3.67;1.63;;;;;;;15.66;60.74;97651.50;4839346;29;20119;-76
2023/09/24 07:39:41;;;;;;;3.53;1.52;;;;;;;15.95;59.93;97657.66;4841346;29;20061;-75
2023/09/24 07:42:09;;;;;;;4.05;1.80;;;;;;;16.35;61.28;97650.84;4846781;29;20062;-75
2023/09/24 07:44:37;;;;;;;8.90;1.67;;;;;;;16.76;58.47;97651.91;4838270;29;20197;-76
2023/09/24 07:47:04;;;;;;;5.45;1.85;;;;;;;17.16;56.97;97666.09;4828429;29;20050;-75
2023/09/24 07:49:32;;;;;;;4.57;1.67;;;;;;;17.46;56.30;97660.50;4825299;29;20134;-75
2023/09/24 07:52:00;;;;;;;5.13;2.17;;;;;;;17.62;55.30;97661.97;4827527;29;20090;-76
2023/09/24 07:54:29;;;;;;;5.07;2.70;;;;;;;17.74;54.56;97668.28;4847350;29;20156;-75
2023/09/24 07:56:56;;;;;;;3.78;2.55;;;;;;;17.92;55.08;97659.78;4849000;29;20101;-75
2023/09/24 07:59:24;;;;;;;4.22;2.20;;;;;;;18.12;54.70;97657.97;4855161;29;20057;-75
2023/09/24 08:01:51;;;;;;;3.42;1.60;;;;;;;18.36;53.49;97658.34;4839963;29;20053;-75
2023/09/24 08:04:19;;;;;;;3.63;1.73;;;;;;;18.57;52.50;97654.66;4844659;29;20065;-75
2023/09/24 08:06:47;;;;;;;3.17;1.52;;;;;;;18.78;51.83;97658.88;4841711;29;20089;-75
2023/09/24 08:09:14;;;;;;;5.20;1.45;;;;;;;19.04;51.27;97665.13;4843301;29;20061;-75
2023/09/24 08:11:55;;;;;;;3.90;1.50;;;;;;;19.34;50.13;97670.69;4854035;29;20533;-75
2023/09/24 08:14:23;;;;;;;3.10;1.20;;;;;;;19.61;50.08;97673.19;4831060;29;20092;-73
2023/09/24 08:16:51;;;;;;;2.58;1.83;;;;;;;19.85;49.42;97671.63;4827103;29;20683;-73
2023/09/24 08:19:19;;;;;;;3.20;1.90;;;;;;;20.03;48.77;97663.75;4825130;29;20054;-73
2023/09/24 08:21:47;;;;;;;4.95;1.90;;;;;;;20.21;48.33;97667.50;4824861;29;20061;-73
2023/09/24 08:24:15;;;;;;;5.63;2.00;;;;;;;20.40;48.82;97670.97;4836226;29;20556;-73
2023/09/24 08:26:42;;;;;;;3.53;1.90;;;;;;;20.62;49.56;97676.69;4827388;29;20137;-76
2023/09/24 08:29:11;;;;;;;2.42;2.00;;;;;;;20.83;48.09;97670.16;4849747;29;20053;-73
2023/09/24 08:31:39;;;;;;;7.18;2.28;;;;;;;20.99;46.71;97673.03;4839780;29;20050;-73
2023/09/24 08:34:06;;;;;;;3.55;1.50;;;;;;;21.14;45.75;97669.19;4827477;29;20050;-73
2023/09/24 08:36:34;;;;;;;2.17;1.60;;;;;;;21.27;46.48;97668.22;4841288;29;20499;-74
2023/09/24 08:39:03;;;;;;;2.20;1.75;;;;;;;21.40;45.61;97673.34;4830833;29;20054;-73
2023/09/24 08:41:33;;;;;;;4.17;1.40;;;;;;;21.52;45.67;97676.09;4826764;29;20088;-73
2023/09/24 08:44:04;;;;;;;3.45;1.77;;;;;;;21.60;44.56;97671.28;4826614;29;20617;-73
2023/09/24 08:46:33;;;;;;;3.88;1.58;;;;;;;21.78;44.48;97673.06;4839008;29;20050;-74
2023/09/24 08:49:04;;;;;;;1.38;1.08;;;;;;;22.01;44.01;97672.28;4842973;29;20062;-73
2023/09/24 08:51:33;;;;;;;3.00;1.88;;;;;;;22.27;43.80;97672.13;4846246;29;20062;-77
2023/09/24 08:54:01;;;;;;;4.18;2.00;;;;;;;22.56;44.00;97681.81;4846604;29;20050;-77
2023/09/24 08:56:29;;;;;;;2.78;1.95;;;;;;;22.92;42.37;97671.94;4830005;29;20503;-77
2023/09/24 08:58:57;;;;;;;2.45;1.40;;;;;;;23.35;41.69;97678.69;4839301;29;20096;-75
2023/09/24 09:01:25;;;;;;;3.53;1.77;;;;;;;24.18;40.32;97673.75;4836552;29;20058;-76
2023/09/24 09:03:54;;;;;;;10.05;6.22;;;;;;;25.83;36.56;97680.09;4861940;29;20063;-77
2023/09/24 09:06:31;;;;;;;7.65;7.13;;;;;;;27.52;32.78;97673.06;4849326;29;20057;-77
2023/09/24 09:08:59;;;;;;;1.90;1.25;;;;;;;28.95;30.31;97669.53;4838071;29;20058;-77
2023/09/24 09:11:37;;;;;;;1.98;0.90;;;;;;;30.18;28.57;97689.53;4830174;29;20519;-77
2023/09/24 09:14:06;;;;;;;3.85;1.58;;;;;;;30.90;26.35;97675.41;4830607;29;20054;-77
2023/09/24 09:16:34;;;;;;;2.80;1.25;;;;;;;31.25;26.60;97674.16;4840487;29;20053;-77
2023/09/24 09:19:03;;;;;;;1.90;1.50;;;;;;;31.01;25.73;97679.59;4846130;29;20069;-79
2023/09/24 09:21:31;;;;;;;1.08;0.80;;;;;;;30.66;25.87;97680.78;4853522;29;20057;-80
2023/09/24 09:23:59;;;;;;;3.00;1.20;;;;;;;30.42;26.03;97669.97;4851354;29;20054;-81
2023/09/24 09:26:27;;;;;;;1.83;0.75;;;;;;;29.85;26.58;97675.00;4838320;29;20483;-80
2023/09/24 09:28:55;;;;;;;2.00;1.08;;;;;;;29.17;27.90;97674.56;4844471;29;20049;-82
2023/09/24 09:31:23;;;;;;;3.97;1.08;;;;;;;28.66;28.51;97669.34;4845827;29;20061;-82
2023/09/24 09:33:51;;;;;;;1.23;0.77;;;;;;;28.21;28.41;97668.34;4855484;29;20030;-83
2023/09/24 09:36:25;;;;;;;1.70;0.85;;;;;;;27.67;28.32;97666.13;4836986;29;20057;-81
2023/09/24 09:38:54;;;;;;;2.38;1.05;;;;;;;27.42;29.01;97656.16;4831897;29;20058;-81
2023/09/24 09:41:24;;;;;;;1.15;0.77;;;;;;;27.54;28.77;97662.91;4839604;29;20141;-81
2023/09/24 09:43:53;;;;;;;2.97;1.15;;;;;;;27.96;27.89;97660.28;4838826;29;20046;-81
2023/09/24 09:46:23;;;;;;;1.95;0.98;;;;;;;28.46;27.12;97664.78;4853729;29;20060;-81
2023/09/24 09:48:55;;;;;;;2.95;1.15;;;;;;;28.99;26.54;97661.72;4858424;29;20050;-81
2023/09/24 09:51:26;;;;;;;1.20;1.00;;;;;;;30.04;25.02;97667.03;4859207;29;20054;-81
2023/09/24 09:53:55;;;;;;;1.98;1.00;;;;;;;31.02;24.21;97661.53;4858581;29;20121;-82
2023/09/24 09:56:23;;;;;;;2.65;1.00;;;;;;;31.80;22.92;97658.28;4856704;29;20088;-82
2023/09/24 09:58:52;;;;;;;1.83;0.90;;;;;;;32.36;22.17;97655.75;4857900;29;20083;-82
2023/09/24 10:01:20;;;;;;;1.83;0.80;;;;;;;32.89;21.14;97665.31;4843537;29;20055;-82
2023/09/24 10:03:51;;;;;;;2.25;0.90;;;;;;;33.10;20.57;97650.31;4871867;29;20055;-82
2023/09/24 10:06:19;;;;;;;2.30;1.02;;;;;;;33.13;21.13;97657.84;4862961;29;20054;-80
2023/09/24 10:08:49;;;;;;;1.30;1.20;;;;;;;33.42;20.77;97656.66;4850705;29;20053;-81
2023/09/24 10:11:50;;;;;;;3.78;0.95;;;;;;;33.54;21.21;97662.31;4848363;29;20073;-82
2023/09/24 10:14:31;;;;;;;1.85;0.98;;;;;;;33.97;20.38;97656.47;4838804;29;20057;-80
2023/09/24 10:17:21;;;;;;;1.15;0.80;;;;;;;34.27;19.76;97659.53;4843012;29;20082;-80
2023/09/24 10:19:50;;;;;;;1.58;0.88;;;;;;;34.18;19.53;97653.28;4834567;29;20066;-82
2023/09/24 10:22:25;;;;;;;2.20;1.27;;;;;;;33.78;19.95;97643.16;4836674;29;20064;-81
2023/09/24 10:24:54;;;;;;;2.08;1.52;;;;;;;33.34;20.99;97649.25;4834552;29;20065;-81
2023/09/24 10:27:27;;;;;;;1.95;1.75;;;;;;;33.22;20.72;97647.09;4837840;29;20069;-81
2023/09/24 10:30:03;;;;;;;1.77;0.80;;;;;;;32.61;20.03;97646.41;4851402;29;20054;-80
2023/09/24 10:32:47;;;;;;;1.55;1.05;;;;;;;31.99;20.50;97650.19;4850357;29;20057;-80
2023/09/24 10:35:15;;;;;;;1.30;0.80;;;;;;;31.38;20.94;97638.38;4851514;29;20050;-83
2023/09/24 10:38:05;;;;;;;1.98;1.10;;;;;;;30.77;21.29;97645.34;4854643;29;20115;-80
2023/09/24 10:40:35;;;;;;;1.85;0.77;;;;;;;30.42;21.62;97649.22;4846700;29;20058;-82
2023/09/24 10:43:13;;;;;;;1.30;1.15;;;;;;;29.85;21.91;97640.84;4843898;29;20052;-83
2023/09/24 10:45:40;;;;;;;1.65;0.88;;;;;;;29.21;22.28;97633.69;4855618;29;20047;-82
2023/09/24 10:48:08;;;;;;;1.55;0.90;;;;;;;28.54;23.17;97628.59;4839270;29;20046;-81
2023/09/24 10:50:39;;;;;;;1.45;1.00;;;;;;;28.28;24.50;97639.34;4840375;29;20058;-80
2023/09/24 10:53:08;;;;;;;1.95;1.17;;;;;;;28.31;24.46;97628.06;4861305;29;20041;-80
2023/09/24 10:55:40;;;;;;;0.50;0.50;;;;;;;28.52;24.35;97625.38;4862758;29;20058;-84
2023/09/24 10:58:13;;;;;;;3.28;1.30;;;;;;;28.78;23.71;97634.16;4843019;29;20075;-85
2023/09/24 11:00:43;;;;;;;1.45;0.90;;;;;;;29.02;23.82;97628.16;4836449;29;20065;-83
2023/09/24 11:03:14;;;;;;;1.10;0.80;;;;;;;29.24;23.72;97622.41;4861440;29;20049;-82
2023/09/24 11:05:45;;;;;;;1.88;1.15;;;;;;;29.52;22.13;97623.59;4869760;29;20073;-84
2023/09/24 11:08:14;;;;;;;1.90;1.10;;;;;;;29.66;22.21;97631.81;4858180;29;20049;-84
2023/09/24 11:10:47;;;;;;;1.83;0.77;;;;;;;29.79;22.42;97620.44;4851777;29;20070;-84
2023/09/24 11:13:15;;;;;;;2.45;1.20;;;;;;;29.88;22.26;97624.13;4849671;29;20061;-83
2023/09/24 11:15:47;;;;;;;2.58;1.00;;;;;;;29.86;22.59;97620.91;4848432;29;20107;-85
2023/09/24 11:18:18;;;;;;;1.65;1.10;;;;;;;29.69;22.63;97617.81;4857587;29;20064;-81
2023/09/24 11:20:50;;;;;;;1.73;1.08;;;;;;;29.44;22.46;97608.84;4848873;29;20058;-83
2023/09/24 11:23:19;;;;;;;1.58;0.88;;;;;;;29.29;23.02;97608.94;4849172;29;20049;-83
2023/09/24 11:25:49;;;;;;;1.05;0.88;;;;;;;29.13;23.35;97602.88;4859181;29;20153;-83
2023/09/24 11:28:30;;;;;;;2.25;1.13;;;;;;;29.25;23.59;97605.19;4858480;29;20087;-84
2023/09/24 11:30:58;;;;;;;2.05;1.00;;;;;;;29.59;23.60;97594.50;4853952;29;20042;-85
2023/09/24 11:33:25;;;;;;;1.83;0.70;;;;;;;29.84;23.66;97593.50;4845689;29;20057;-84
2023/09/24 11:35:55;;;;;;;3.35;1.33;;;;;;;30.11;23.16;97602.94;4860770;29;20137;-84
2023/09/24 11:38:31;;;;;;;3.35;1.33;;;;;;;30.63;21.79;97595.16;4847568;29;20088;-84
2023/09/24 11:41:12;;;;;;;2.28;0.88;;;;;;;30.89;21.00;97587.59;4838132;29;20058;-83
2023/09/24 11:43:41;;;;;;;0.93;0.82;;;;;;;30.72;21.10;97586.16;4856405;29;20061;-84
2023/09/24 11:46:21;;;;;;;1.55;0.90;;;;;;;30.30;20.34;97595.78;4853732;29;20062;-84